sensor_id;sensor_type;location;lat;lon;timestamp;temperature;humidity
13998;DHT22;7074;51.508;7.018;2023-08-21T00:01:44;21.90;99.90
13998;DHT22;7074;51.508;7.018;2023-08-21T00:04:13;21.90;99.90
13998;DHT22;7074;51.508;7.018;2023-08-21T00:06:40;21.90;99.90
13998;DHT22;7074;51.508;7.018;2023-08-21T00:09:07;21.90;99.90
13998;DHT22;7074;51.508;7.018;2023-08-21T00:11:34;21.90;99.90
13998;DHT22;7074;51.508;7.018;2023-08-21T00:14:02;21.90;99.90
13998;DHT22;7074;51.508;7.018;2023-08-21T00:16:29;21.90;99.90
13998;DHT22;7074;51.508;7.018;2023-08-21T00:18:56;21.90;99.90
13998;DHT22;7074;51.508;7.018;2023-08-21T00:21:24;21.90;99.90
13998;DHT22;7074;51.508;7.018;2023-08-21T00:23:51;21.80;99.90
13998;DHT22;7074;51.508;7.018;2023-08-21T00:26:19;21.80;99.90
13998;DHT22;7074;51.508;7.018;2023-08-21T00:28:46;21.80;99.90
13998;DHT22;7074;51.508;7.018;2023-08-21T00:31:13;21.80;99.90
13998;DHT22;7074;51.508;7.018;2023-08-21T00:33:40;21.80;99.90
13998;DHT22;7074;51.508;7.018;2023-08-21T00:36:07;21.70;99.90
13998;DHT22;7074;51.508;7.018;2023-08-21T00:38:37;21.70;99.90
13998;DHT22;7074;51.508;7.018;2023-08-21T00:41:04;21.70;99.90
13998;DHT22;7074;51.508;7.018;2023-08-21T00:43:32;21.60;99.90
13998;DHT22;7074;51.508;7.018;2023-08-21T00:45:59;21.60;99.90
13998;DHT22;7074;51.508;7.018;2023-08-21T00:48:26;21.70;99.90
13998;DHT22;7074;51.508;7.018;2023-08-21T00:50:53;21.60;99.90
13998;DHT22;7074;51.508;7.018;2023-08-21T00:53:22;21.60;99.90
13998;DHT22;7074;51.508;7.018;2023-08-21T00:55:50;21.50;99.90
13998;DHT22;7074;51.508;7.018;2023-08-21T00:58:18;21.50;99.90
13998;DHT22;7074;51.508;7.018;2023-08-21T01:00:45;21.50;99.90
13998;DHT22;7074;51.508;7.018;2023-08-21T01:03:14;21.40;99.90
13998;DHT22;7074;51.508;7.018;2023-08-21T01:05:42;21.40;99.90
13998;DHT22;7074;51.508;7.018;2023-08-21T01:08:14;21.30;99.90
13998;DHT22;7074;51.508;7.018;2023-08-21T01:10:48;21.30;99.90
13998;DHT22;7074;51.508;7.018;2023-08-21T01:13:34;21.30;99.90
13998;DHT22;7074;51.508;7.018;2023-08-21T01:16:05;21.30;99.90
13998;DHT22;7074;51.508;7.018;2023-08-21T01:18:34;21.30;99.90
13998;DHT22;7074;51.508;7.018;2023-08-21T01:21:02;21.30;99.90
13998;DHT22;7074;51.508;7.018;2023-08-21T01:23:33;21.30;99.90
13998;DHT22;7074;51.508;7.018;2023-08-21T01:26:00;21.30;99.90
13998;DHT22;7074;51.508;7.018;2023-08-21T01:28:30;21.20;99.90
13998;DHT22;7074;51.508;7.018;2023-08-21T01:31:03;21.20;99.90
13998;DHT22;7074;51.508;7.018;2023-08-21T01:33:35;21.10;99.90
13998;DHT22;7074;51.508;7.018;2023-08-21T01:36:04;21.10;99.90
13998;DHT22;7074;51.508;7.018;2023-08-21T01:38:33;21.10;99.90
13998;DHT22;7074;51.508;7.018;2023-08-21T01:41:01;20.90;99.90
13998;DHT22;7074;51.508;7.018;2023-08-21T01:43:28;20.90;99.90
13998;DHT22;7074;51.508;7.018;2023-08-21T01:45:56;21.00;99.90
13998;DHT22;7074;51.508;7.018;2023-08-21T01:48:23;20.90;99.90
13998;DHT22;7074;51.508;7.018;2023-08-21T01:50:50;20.90;99.90
13998;DHT22;7074;51.508;7.018;2023-08-21T01:53:17;21.00;99.90
13998;DHT22;7074;51.508;7.018;2023-08-21T01:55:46;20.90;99.90
13998;DHT22;7074;51.508;7.018;2023-08-21T01:58:15;21.00;99.90
13998;DHT22;7074;51.508;7.018;2023-08-21T02:00:45;20.90;99.90
13998;DHT22;7074;51.508;7.018;2023-08-21T02:03:13;20.90;99.90
13998;DHT22;7074;51.508;7.018;2023-08-21T02:05:40;20.90;99.90
13998;DHT22;7074;51.508;7.018;2023-08-21T02:08:14;20.90;99.90
13998;DHT22;7074;51.508;7.018;2023-08-21T02:10:51;20.90;99.90
13998;DHT22;7074;51.508;7.018;2023-08-21T02:13:19;20.80;99.90
13998;DHT22;7074;51.508;7.018;2023-08-21T02:15:46;20.70;99.90
13998;DHT22;7074;51.508;7.018;2023-08-21T02:18:13;20.70;99.90
13998;DHT22;7074;51.508;7.018;2023-08-21T02:20:41;20.70;99.90
13998;DHT22;7074;51.508;7.018;2023-08-21T02:23:09;20.70;99.90
13998;DHT22;7074;51.508;7.018;2023-08-21T02:25:36;20.70;99.90
13998;DHT22;7074;51.508;7.018;2023-08-21T02:28:05;20.70;99.90
13998;DHT22;7074;51.508;7.018;2023-08-21T02:30:32;20.60;99.90
13998;DHT22;7074;51.508;7.018;2023-08-21T02:32:59;20.60;99.90
13998;DHT22;7074;51.508;7.018;2023-08-21T02:35:27;20.60;99.90
13998;DHT22;7074;51.508;7.018;2023-08-21T02:37:55;20.50;99.90
13998;DHT22;7074;51.508;7.018;2023-08-21T02:40:22;20.40;99.90
13998;DHT22;7074;51.508;7.018;2023-08-21T02:42:49;20.40;99.90
13998;DHT22;7074;51.508;7.018;2023-08-21T02:45:18;20.30;99.90
13998;DHT22;7074;51.508;7.018;2023-08-21T02:47:45;20.30;99.90
13998;DHT22;7074;51.508;7.018;2023-08-21T02:50:12;20.30;99.90
13998;DHT22;7074;51.508;7.018;2023-08-21T02:52:39;20.20;99.90
13998;DHT22;7074;51.508;7.018;2023-08-21T02:55:08;20.20;99.90
13998;DHT22;7074;51.508;7.018;2023-08-21T02:57:35;20.20;99.90
13998;DHT22;7074;51.508;7.018;2023-08-21T03:00:02;20.20;99.90
13998;DHT22;7074;51.508;7.018;2023-08-21T03:02:31;20.20;99.90
13998;DHT22;7074;51.508;7.018;2023-08-21T03:04:58;20.20;99.90
13998;DHT22;7074;51.508;7.018;2023-08-21T03:07:25;20.10;99.90
13998;DHT22;7074;51.508;7.018;2023-08-21T03:09:53;20.10;99.90
13998;DHT22;7074;51.508;7.018;2023-08-21T03:12:21;20.10;99.90
13998;DHT22;7074;51.508;7.018;2023-08-21T03:14:48;20.20;99.90
13998;DHT22;7074;51.508;7.018;2023-08-21T03:17:15;20.20;99.90
13998;DHT22;7074;51.508;7.018;2023-08-21T03:19:43;20.10;99.90
13998;DHT22;7074;51.508;7.018;2023-08-21T03:22:10;20.10;99.90
13998;DHT22;7074;51.508;7.018;2023-08-21T03:24:38;20.10;99.90
13998;DHT22;7074;51.508;7.018;2023-08-21T03:27:05;20.10;99.90
13998;DHT22;7074;51.508;7.018;2023-08-21T03:29:32;20.10;99.90
13998;DHT22;7074;51.508;7.018;2023-08-21T03:31:59;20.10;99.90
13998;DHT22;7074;51.508;7.018;2023-08-21T03:34:27;20.00;99.90
13998;DHT22;7074;51.508;7.018;2023-08-21T03:36:59;20.00;99.90
13998;DHT22;7074;51.508;7.018;2023-08-21T03:39:30;19.90;99.90
13998;DHT22;7074;51.508;7.018;2023-08-21T03:41:57;19.90;99.90
13998;DHT22;7074;51.508;7.018;2023-08-21T03:44:24;19.90;99.90
13998;DHT22;7074;51.508;7.018;2023-08-21T03:46:51;19.90;99.90
13998;DHT22;7074;51.508;7.018;2023-08-21T03:49:19;19.90;99.90
13998;DHT22;7074;51.508;7.018;2023-08-21T03:51:47;20.00;99.90
13998;DHT22;7074;51.508;7.018;2023-08-21T03:54:16;19.90;99.90
13998;DHT22;7074;51.508;7.018;2023-08-21T03:56:43;19.90;99.90
13998;DHT22;7074;51.508;7.018;2023-08-21T03:59:11;19.90;99.90
13998;DHT22;7074;51.508;7.018;2023-08-21T04:01:38;19.90;99.90
13998;DHT22;7074;51.508;7.018;2023-08-21T04:04:05;19.90;99.90
13998;DHT22;7074;51.508;7.018;2023-08-21T04:06:32;19.90;99.90
13998;DHT22;7074;51.508;7.018;2023-08-21T04:09:00;19.80;99.90
13998;DHT22;7074;51.508;7.018;2023-08-21T04:11:28;19.80;99.90
13998;DHT22;7074;51.508;7.018;2023-08-21T04:13:55;19.80;99.90
13998;DHT22;7074;51.508;7.018;2023-08-21T04:16:27;19.80;99.90
13998;DHT22;7074;51.508;7.018;2023-08-21T04:18:54;19.80;99.90
13998;DHT22;7074;51.508;7.018;2023-08-21T04:21:21;19.80;99.90
13998;DHT22;7074;51.508;7.018;2023-08-21T04:23:48;19.80;99.90
13998;DHT22;7074;51.508;7.018;2023-08-21T04:26:15;19.70;99.90
13998;DHT22;7074;51.508;7.018;2023-08-21T04:28:45;19.70;99.90
13998;DHT22;7074;51.508;7.018;2023-08-21T04:31:12;19.80;99.90
13998;DHT22;7074;51.508;7.018;2023-08-21T04:33:39;19.70;99.90
13998;DHT22;7074;51.508;7.018;2023-08-21T04:36:07;19.70;99.90
13998;DHT22;7074;51.508;7.018;2023-08-21T04:38:34;19.80;99.90
13998;DHT22;7074;51.508;7.018;2023-08-21T04:41:08;19.80;99.90
13998;DHT22;7074;51.508;7.018;2023-08-21T04:43:38;19.90;99.90
13998;DHT22;7074;51.508;7.018;2023-08-21T04:46:08;19.90;99.90
13998;DHT22;7074;51.508;7.018;2023-08-21T04:48:38;19.90;99.90
13998;DHT22;7074;51.508;7.018;2023-08-21T04:51:06;19.90;99.90
13998;DHT22;7074;51.508;7.018;2023-08-21T04:53:33;19.90;99.90
13998;DHT22;7074;51.508;7.018;2023-08-21T04:56:01;19.90;99.90
13998;DHT22;7074;51.508;7.018;2023-08-21T04:58:31;19.90;99.90
13998;DHT22;7074;51.508;7.018;2023-08-21T05:00:58;19.90;99.90
13998;DHT22;7074;51.508;7.018;2023-08-21T05:03:27;20.00;99.90
13998;DHT22;7074;51.508;7.018;2023-08-21T05:05:55;20.00;99.90
13998;DHT22;7074;51.508;7.018;2023-08-21T05:08:24;20.00;99.90
13998;DHT22;7074;51.508;7.018;2023-08-21T05:10:54;20.00;99.90
13998;DHT22;7074;51.508;7.018;2023-08-21T05:13:23;20.00;99.90
13998;DHT22;7074;51.508;7.018;2023-08-21T05:15:53;20.00;99.90
13998;DHT22;7074;51.508;7.018;2023-08-21T05:18:23;20.00;99.90
13998;DHT22;7074;51.508;7.018;2023-08-21T05:20:56;20.00;99.90
13998;DHT22;7074;51.508;7.018;2023-08-21T05:23:24;20.10;99.90
13998;DHT22;7074;51.508;7.018;2023-08-21T05:26:00;20.10;99.90
13998;DHT22;7074;51.508;7.018;2023-08-21T05:28:30;20.20;99.90
13998;DHT22;7074;51.508;7.018;2023-08-21T05:30:58;20.20;99.90
13998;DHT22;7074;51.508;7.018;2023-08-21T05:33:30;20.20;99.90
13998;DHT22;7074;51.508;7.018;2023-08-21T05:36:00;20.20;99.90
13998;DHT22;7074;51.508;7.018;2023-08-21T05:38:27;20.30;99.90
13998;DHT22;7074;51.508;7.018;2023-08-21T05:40:55;20.40;99.90
13998;DHT22;7074;51.508;7.018;2023-08-21T05:43:24;20.50;99.90
13998;DHT22;7074;51.508;7.018;2023-08-21T05:45:53;20.60;99.90
13998;DHT22;7074;51.508;7.018;2023-08-21T05:48:21;20.60;99.90
13998;DHT22;7074;51.508;7.018;2023-08-21T05:50:51;20.60;99.90
13998;DHT22;7074;51.508;7.018;2023-08-21T05:53:20;20.60;99.90
13998;DHT22;7074;51.508;7.018;2023-08-21T05:55:48;20.70;99.90
13998;DHT22;7074;51.508;7.018;2023-08-21T05:58:15;20.80;99.90
13998;DHT22;7074;51.508;7.018;2023-08-21T06:00:42;20.80;99.90
13998;DHT22;7074;51.508;7.018;2023-08-21T06:03:10;20.90;99.90
13998;DHT22;7074;51.508;7.018;2023-08-21T06:05:54;21.00;99.90
13998;DHT22;7074;51.508;7.018;2023-08-21T06:08:23;21.20;99.90
13998;DHT22;7074;51.508;7.018;2023-08-21T06:10:53;21.30;99.90
13998;DHT22;7074;51.508;7.018;2023-08-21T06:13:21;21.40;99.90
13998;DHT22;7074;51.508;7.018;2023-08-21T06:15:51;21.50;99.90
13998;DHT22;7074;51.508;7.018;2023-08-21T06:18:20;21.60;99.90
13998;DHT22;7074;51.508;7.018;2023-08-21T06:20:48;21.70;99.90
13998;DHT22;7074;51.508;7.018;2023-08-21T06:23:19;21.80;99.90
13998;DHT22;7074;51.508;7.018;2023-08-21T06:25:49;21.90;99.90
13998;DHT22;7074;51.508;7.018;2023-08-21T06:28:19;22.00;99.90
13998;DHT22;7074;51.508;7.018;2023-08-21T06:30:46;22.10;99.90
13998;DHT22;7074;51.508;7.018;2023-08-21T06:33:13;22.10;99.90
13998;DHT22;7074;51.508;7.018;2023-08-21T06:35:41;22.20;99.90
13998;DHT22;7074;51.508;7.018;2023-08-21T06:38:08;22.30;99.90
13998;DHT22;7074;51.508;7.018;2023-08-21T06:40:35;22.40;99.90
13998;DHT22;7074;51.508;7.018;2023-08-21T06:43:04;22.40;99.90
13998;DHT22;7074;51.508;7.018;2023-08-21T06:45:33;22.40;99.90
13998;DHT22;7074;51.508;7.018;2023-08-21T06:48:03;22.50;99.90
13998;DHT22;7074;51.508;7.018;2023-08-21T06:50:31;22.50;99.90
13998;DHT22;7074;51.508;7.018;2023-08-21T06:52:58;22.40;99.90
13998;DHT22;7074;51.508;7.018;2023-08-21T06:55:25;22.50;99.90
13998;DHT22;7074;51.508;7.018;2023-08-21T06:57:52;22.60;99.90
13998;DHT22;7074;51.508;7.018;2023-08-21T07:00:21;22.60;99.90
13998;DHT22;7074;51.508;7.018;2023-08-21T07:02:48;22.80;99.90
13998;DHT22;7074;51.508;7.018;2023-08-21T07:05:16;22.90;99.90
13998;DHT22;7074;51.508;7.018;2023-08-21T07:07:43;23.00;99.90
13998;DHT22;7074;51.508;7.018;2023-08-21T07:10:10;23.20;99.90
13998;DHT22;7074;51.508;7.018;2023-08-21T07:12:38;23.40;99.90
13998;DHT22;7074;51.508;7.018;2023-08-21T07:15:06;23.50;99.90
13998;DHT22;7074;51.508;7.018;2023-08-21T07:17:35;23.50;99.90
13998;DHT22;7074;51.508;7.018;2023-08-21T07:20:03;23.40;99.90
13998;DHT22;7074;51.508;7.018;2023-08-21T07:22:30;23.40;99.90
13998;DHT22;7074;51.508;7.018;2023-08-21T07:24:58;23.40;99.90
13998;DHT22;7074;51.508;7.018;2023-08-21T07:27:26;23.40;99.90
13998;DHT22;7074;51.508;7.018;2023-08-21T07:29:53;23.40;99.90
13998;DHT22;7074;51.508;7.018;2023-08-21T07:32:21;23.40;99.90
13998;DHT22;7074;51.508;7.018;2023-08-21T07:34:52;23.20;99.90
13998;DHT22;7074;51.508;7.018;2023-08-21T07:37:20;23.20;99.90
13998;DHT22;7074;51.508;7.018;2023-08-21T07:39:47;23.30;99.90
13998;DHT22;7074;51.508;7.018;2023-08-21T07:42:15;23.40;99.90
13998;DHT22;7074;51.508;7.018;2023-08-21T07:44:42;23.60;99.90
13998;DHT22;7074;51.508;7.018;2023-08-21T07:47:09;23.80;99.90
13998;DHT22;7074;51.508;7.018;2023-08-21T07:49:37;23.90;99.90
13998;DHT22;7074;51.508;7.018;2023-08-21T07:52:06;23.90;99.90
13998;DHT22;7074;51.508;7.018;2023-08-21T07:54:33;23.60;99.90
13998;DHT22;7074;51.508;7.018;2023-08-21T07:57:01;23.80;99.90
13998;DHT22;7074;51.508;7.018;2023-08-21T07:59:29;23.60;99.90
13998;DHT22;7074;51.508;7.018;2023-08-21T08:01:56;24.00;99.90
13998;DHT22;7074;51.508;7.018;2023-08-21T08:04:26;24.20;99.90
13998;DHT22;7074;51.508;7.018;2023-08-21T08:06:53;24.30;99.90
13998;DHT22;7074;51.508;7.018;2023-08-21T08:09:22;24.50;99.90
13998;DHT22;7074;51.508;7.018;2023-08-21T08:11:50;24.20;99.90
13998;DHT22;7074;51.508;7.018;2023-08-21T08:14:17;24.20;99.90
13998;DHT22;7074;51.508;7.018;2023-08-21T08:16:45;24.30;99.90
13998;DHT22;7074;51.508;7.018;2023-08-21T08:19:12;24.60;99.90
13998;DHT22;7074;51.508;7.018;2023-08-21T08:21:39;24.70;99.90
13998;DHT22;7074;51.508;7.018;2023-08-21T08:24:06;24.80;99.90
13998;DHT22;7074;51.508;7.018;2023-08-21T08:26:35;24.90;99.90
13998;DHT22;7074;51.508;7.018;2023-08-21T08:29:03;24.80;99.90
13998;DHT22;7074;51.508;7.018;2023-08-21T08:31:31;24.70;99.90
13998;DHT22;7074;51.508;7.018;2023-08-21T08:33:58;24.90;99.90
13998;DHT22;7074;51.508;7.018;2023-08-21T08:36:25;25.20;99.90
13998;DHT22;7074;51.508;7.018;2023-08-21T08:38:52;25.30;99.90
13998;DHT22;7074;51.508;7.018;2023-08-21T08:41:43;25.50;99.90
13998;DHT22;7074;51.508;7.018;2023-08-21T08:44:13;25.30;99.90
13998;DHT22;7074;51.508;7.018;2023-08-21T08:46:43;25.40;99.90
13998;DHT22;7074;51.508;7.018;2023-08-21T08:49:11;25.60;99.90
13998;DHT22;7074;51.508;7.018;2023-08-21T08:51:39;25.70;99.90
13998;DHT22;7074;51.508;7.018;2023-08-21T08:54:06;25.90;99.90
13998;DHT22;7074;51.508;7.018;2023-08-21T08:56:34;26.10;99.90
13998;DHT22;7074;51.508;7.018;2023-08-21T08:59:02;26.10;99.90
13998;DHT22;7074;51.508;7.018;2023-08-21T09:01:31;26.00;99.90
13998;DHT22;7074;51.508;7.018;2023-08-21T09:03:58;26.10;99.90
13998;DHT22;7074;51.508;7.018;2023-08-21T09:06:26;26.30;99.90
13998;DHT22;7074;51.508;7.018;2023-08-21T09:08:54;26.40;99.90
13998;DHT22;7074;51.508;7.018;2023-08-21T09:11:21;26.50;99.90
13998;DHT22;7074;51.508;7.018;2023-08-21T09:13:49;26.40;99.90
13998;DHT22;7074;51.508;7.018;2023-08-21T09:16:18;26.20;99.90
13998;DHT22;7074;51.508;7.018;2023-08-21T09:18:51;26.40;99.90
13998;DHT22;7074;51.508;7.018;2023-08-21T09:21:20;26.60;99.90
13998;DHT22;7074;51.508;7.018;2023-08-21T09:23:48;26.50;99.90
13998;DHT22;7074;51.508;7.018;2023-08-21T09:26:21;26.60;99.90
13998;DHT22;7074;51.508;7.018;2023-08-21T09:28:49;26.70;99.90
13998;DHT22;7074;51.508;7.018;2023-08-21T09:31:17;27.00;99.90
13998;DHT22;7074;51.508;7.018;2023-08-21T09:33:56;27.10;99.90
13998;DHT22;7074;51.508;7.018;2023-08-21T09:36:24;27.10;99.90
13998;DHT22;7074;51.508;7.018;2023-08-21T09:38:51;27.30;99.90
13998;DHT22;7074;51.508;7.018;2023-08-21T09:41:20;26.90;99.90
13998;DHT22;7074;51.508;7.018;2023-08-21T09:43:47;27.00;99.90
13998;DHT22;7074;51.508;7.018;2023-08-21T09:46:16;27.00;99.90
13998;DHT22;7074;51.508;7.018;2023-08-21T09:48:44;27.00;99.90
13998;DHT22;7074;51.508;7.018;2023-08-21T09:51:14;26.80;99.90
13998;DHT22;7074;51.508;7.018;2023-08-21T09:53:41;26.80;99.90
13998;DHT22;7074;51.508;7.018;2023-08-21T09:56:09;27.00;99.90
13998;DHT22;7074;51.508;7.018;2023-08-21T09:58:37;27.00;99.90
13998;DHT22;7074;51.508;7.018;2023-08-21T10:01:07;27.20;99.90
13998;DHT22;7074;51.508;7.018;2023-08-21T10:03:39;27.40;99.90
13998;DHT22;7074;51.508;7.018;2023-08-21T10:06:09;27.60;99.70
13998;DHT22;7074;51.508;7.018;2023-08-21T10:08:39;27.70;99.50
13998;DHT22;7074;51.508;7.018;2023-08-21T10:11:07;27.50;99.10
13998;DHT22;7074;51.508;7.018;2023-08-21T10:13:37;27.60;98.30
13998;DHT22;7074;51.508;7.018;2023-08-21T10:16:05;27.50;99.20
13998;DHT22;7074;51.508;7.018;2023-08-21T10:18:35;27.60;98.90
13998;DHT22;7074;51.508;7.018;2023-08-21T10:21:13;27.50;98.30
13998;DHT22;7074;51.508;7.018;2023-08-21T10:23:42;27.40;98.80
13998;DHT22;7074;51.508;7.018;2023-08-21T10:26:13;27.50;99.50
13998;DHT22;7074;51.508;7.018;2023-08-21T10:28:49;27.40;99.10
13998;DHT22;7074;51.508;7.018;2023-08-21T10:31:31;27.40;99.20
13998;DHT22;7074;51.508;7.018;2023-08-21T10:33:59;27.30;99.30
13998;DHT22;7074;51.508;7.018;2023-08-21T10:37:06;27.40;98.90
13998;DHT22;7074;51.508;7.018;2023-08-21T10:39:36;27.40;98.60
13998;DHT22;7074;51.508;7.018;2023-08-21T10:42:08;27.40;98.70
13998;DHT22;7074;51.508;7.018;2023-08-21T10:44:45;27.60;98.30
13998;DHT22;7074;51.508;7.018;2023-08-21T10:47:16;27.80;98.30
13998;DHT22;7074;51.508;7.018;2023-08-21T10:49:45;27.80;98.30
13998;DHT22;7074;51.508;7.018;2023-08-21T10:52:14;27.30;97.90
13998;DHT22;7074;51.508;7.018;2023-08-21T10:54:46;27.50;98.20
13998;DHT22;7074;51.508;7.018;2023-08-21T10:57:14;27.50;98.20
13998;DHT22;7074;51.508;7.018;2023-08-21T10:59:56;27.60;99.40
13998;DHT22;7074;51.508;7.018;2023-08-21T11:02:24;27.70;98.10
13998;DHT22;7074;51.508;7.018;2023-08-21T11:04:52;27.90;97.40
13998;DHT22;7074;51.508;7.018;2023-08-21T11:07:21;28.00;97.40
13998;DHT22;7074;51.508;7.018;2023-08-21T11:09:49;28.40;96.90
13998;DHT22;7074;51.508;7.018;2023-08-21T11:12:18;28.50;97.50
13998;DHT22;7074;51.508;7.018;2023-08-21T11:14:46;28.70;96.20
13998;DHT22;7074;51.508;7.018;2023-08-21T11:17:13;28.70;95.10
13998;DHT22;7074;51.508;7.018;2023-08-21T11:19:41;28.70;95.70
13998;DHT22;7074;51.508;7.018;2023-08-21T11:22:10;28.30;95.50
13998;DHT22;7074;51.508;7.018;2023-08-21T11:24:44;28.60;95.60
13998;DHT22;7074;51.508;7.018;2023-08-21T11:27:13;28.70;94.90
13998;DHT22;7074;51.508;7.018;2023-08-21T11:29:42;28.50;94.60
13998;DHT22;7074;51.508;7.018;2023-08-21T11:32:12;28.60;94.50
13998;DHT22;7074;51.508;7.018;2023-08-21T11:34:40;28.70;94.60
13998;DHT22;7074;51.508;7.018;2023-08-21T11:37:08;29.00;94.70
13998;DHT22;7074;51.508;7.018;2023-08-21T11:39:42;28.60;94.70
13998;DHT22;7074;51.508;7.018;2023-08-21T11:42:11;28.90;93.80
13998;DHT22;7074;51.508;7.018;2023-08-21T11:44:43;28.90;94.60
13998;DHT22;7074;51.508;7.018;2023-08-21T11:47:11;29.10;93.60
13998;DHT22;7074;51.508;7.018;2023-08-21T11:49:43;29.30;93.80
13998;DHT22;7074;51.508;7.018;2023-08-21T11:52:11;29.40;93.00
13998;DHT22;7074;51.508;7.018;2023-08-21T11:54:39;29.10;93.10
13998;DHT22;7074;51.508;7.018;2023-08-21T11:57:12;29.10;93.30
13998;DHT22;7074;51.508;7.018;2023-08-21T11:59:39;29.20;92.80
13998;DHT22;7074;51.508;7.018;2023-08-21T12:02:14;29.00;92.50
13998;DHT22;7074;51.508;7.018;2023-08-21T12:04:42;29.10;93.20
13998;DHT22;7074;51.508;7.018;2023-08-21T12:07:09;29.30;93.20
13998;DHT22;7074;51.508;7.018;2023-08-21T12:09:37;29.00;93.10
13998;DHT22;7074;51.508;7.018;2023-08-21T12:12:04;29.10;94.10
13998;DHT22;7074;51.508;7.018;2023-08-21T12:14:33;29.30;93.00
13998;DHT22;7074;51.508;7.018;2023-08-21T12:17:05;29.40;92.10
13998;DHT22;7074;51.508;7.018;2023-08-21T12:19:33;29.50;92.30
13998;DHT22;7074;51.508;7.018;2023-08-21T12:22:00;29.80;92.70
13998;DHT22;7074;51.508;7.018;2023-08-21T12:24:28;29.80;91.20
13998;DHT22;7074;51.508;7.018;2023-08-21T12:26:56;29.80;91.30
13998;DHT22;7074;51.508;7.018;2023-08-21T12:29:23;29.80;90.50
13998;DHT22;7074;51.508;7.018;2023-08-21T12:31:52;30.00;91.00
13998;DHT22;7074;51.508;7.018;2023-08-21T12:34:20;29.90;90.80
13998;DHT22;7074;51.508;7.018;2023-08-21T12:36:49;30.00;89.90
13998;DHT22;7074;51.508;7.018;2023-08-21T12:39:17;30.20;90.20
13998;DHT22;7074;51.508;7.018;2023-08-21T12:41:45;30.20;88.50
13998;DHT22;7074;51.508;7.018;2023-08-21T12:44:12;30.30;88.60
13998;DHT22;7074;51.508;7.018;2023-08-21T12:46:40;30.20;86.20
13998;DHT22;7074;51.508;7.018;2023-08-21T12:49:09;30.10;86.70
13998;DHT22;7074;51.508;7.018;2023-08-21T12:51:36;29.80;87.70
13998;DHT22;7074;51.508;7.018;2023-08-21T12:54:04;29.60;90.50
13998;DHT22;7074;51.508;7.018;2023-08-21T12:56:32;29.60;91.20
13998;DHT22;7074;51.508;7.018;2023-08-21T12:58:59;29.00;92.50
13998;DHT22;7074;51.508;7.018;2023-08-21T13:01:26;29.20;92.10
13998;DHT22;7074;51.508;7.018;2023-08-21T13:03:53;29.20;91.80
13998;DHT22;7074;51.508;7.018;2023-08-21T13:06:22;29.30;92.00
13998;DHT22;7074;51.508;7.018;2023-08-21T13:08:49;29.60;91.10
13998;DHT22;7074;51.508;7.018;2023-08-21T13:11:17;29.70;91.20
13998;DHT22;7074;51.508;7.018;2023-08-21T13:13:44;29.50;91.50
13998;DHT22;7074;51.508;7.018;2023-08-21T13:16:12;29.50;91.70
13998;DHT22;7074;51.508;7.018;2023-08-21T13:18:39;29.60;91.80
13998;DHT22;7074;51.508;7.018;2023-08-21T13:21:07;29.70;91.80
13998;DHT22;7074;51.508;7.018;2023-08-21T13:23:36;29.90;91.10
13998;DHT22;7074;51.508;7.018;2023-08-21T13:26:03;29.60;90.70
13998;DHT22;7074;51.508;7.018;2023-08-21T13:28:30;29.30;91.00
13998;DHT22;7074;51.508;7.018;2023-08-21T13:30:58;29.50;91.20
13998;DHT22;7074;51.508;7.018;2023-08-21T13:33:25;28.90;90.90
13998;DHT22;7074;51.508;7.018;2023-08-21T13:35:52;29.30;92.40
13998;DHT22;7074;51.508;7.018;2023-08-21T13:38:20;29.50;91.20
13998;DHT22;7074;51.508;7.018;2023-08-21T13:40:49;28.80;92.40
13998;DHT22;7074;51.508;7.018;2023-08-21T13:43:18;29.00;92.60
13998;DHT22;7074;51.508;7.018;2023-08-21T13:45:46;29.10;92.60
13998;DHT22;7074;51.508;7.018;2023-08-21T13:48:13;29.20;91.50
13998;DHT22;7074;51.508;7.018;2023-08-21T13:50:41;29.30;92.10
13998;DHT22;7074;51.508;7.018;2023-08-21T13:53:08;29.30;92.10
13998;DHT22;7074;51.508;7.018;2023-08-21T13:55:35;29.20;91.80
13998;DHT22;7074;51.508;7.018;2023-08-21T13:58:05;28.70;92.70
13998;DHT22;7074;51.508;7.018;2023-08-21T14:00:32;28.90;92.60
13998;DHT22;7074;51.508;7.018;2023-08-21T14:03:00;29.30;92.00
13998;DHT22;7074;51.508;7.018;2023-08-21T14:05:27;29.60;92.70
13998;DHT22;7074;51.508;7.018;2023-08-21T14:07:57;29.90;92.20
13998;DHT22;7074;51.508;7.018;2023-08-21T14:10:24;29.80;92.50
13998;DHT22;7074;51.508;7.018;2023-08-21T14:12:52;30.10;92.50
13998;DHT22;7074;51.508;7.018;2023-08-21T14:15:20;30.30;91.80
13998;DHT22;7074;51.508;7.018;2023-08-21T14:17:48;30.50;91.10
13998;DHT22;7074;51.508;7.018;2023-08-21T14:20:16;30.10;90.60
13998;DHT22;7074;51.508;7.018;2023-08-21T14:22:43;30.00;91.00
13998;DHT22;7074;51.508;7.018;2023-08-21T14:25:10;29.90;91.80
13998;DHT22;7074;51.508;7.018;2023-08-21T14:27:38;29.80;92.50
13998;DHT22;7074;51.508;7.018;2023-08-21T14:30:06;29.70;92.00
13998;DHT22;7074;51.508;7.018;2023-08-21T14:32:36;29.60;92.40
13998;DHT22;7074;51.508;7.018;2023-08-21T14:35:05;29.60;92.60
13998;DHT22;7074;51.508;7.018;2023-08-21T14:37:33;29.70;91.60
13998;DHT22;7074;51.508;7.018;2023-08-21T14:40:01;29.40;91.50
13998;DHT22;7074;51.508;7.018;2023-08-21T14:42:33;28.70;91.70
13998;DHT22;7074;51.508;7.018;2023-08-21T14:45:00;28.80;93.50
13998;DHT22;7074;51.508;7.018;2023-08-21T14:47:28;28.90;93.60
13998;DHT22;7074;51.508;7.018;2023-08-21T14:49:57;28.70;94.50
13998;DHT22;7074;51.508;7.018;2023-08-21T14:52:25;28.60;95.40
13998;DHT22;7074;51.508;7.018;2023-08-21T14:54:52;28.60;95.70
13998;DHT22;7074;51.508;7.018;2023-08-21T14:57:20;28.60;94.90
13998;DHT22;7074;51.508;7.018;2023-08-21T14:59:47;28.70;94.40
13998;DHT22;7074;51.508;7.018;2023-08-21T15:02:14;28.50;94.00
13998;DHT22;7074;51.508;7.018;2023-08-21T15:04:42;28.80;94.00
13998;DHT22;7074;51.508;7.018;2023-08-21T15:07:13;29.00;93.30
13998;DHT22;7074;51.508;7.018;2023-08-21T15:09:41;29.20;92.90
13998;DHT22;7074;51.508;7.018;2023-08-21T15:12:08;29.10;92.90
13998;DHT22;7074;51.508;7.018;2023-08-21T15:14:36;28.80;93.30
13998;DHT22;7074;51.508;7.018;2023-08-21T15:17:03;28.90;93.30
13998;DHT22;7074;51.508;7.018;2023-08-21T15:19:31;29.00;93.30
13998;DHT22;7074;51.508;7.018;2023-08-21T15:21:58;28.80;93.80
13998;DHT22;7074;51.508;7.018;2023-08-21T15:24:27;28.60;94.80
13998;DHT22;7074;51.508;7.018;2023-08-21T15:26:54;28.80;95.00
13998;DHT22;7074;51.508;7.018;2023-08-21T15:29:22;28.90;95.40
13998;DHT22;7074;51.508;7.018;2023-08-21T15:31:49;29.00;95.10
13998;DHT22;7074;51.508;7.018;2023-08-21T15:34:18;29.00;96.20
13998;DHT22;7074;51.508;7.018;2023-08-21T15:36:46;29.00;95.90
13998;DHT22;7074;51.508;7.018;2023-08-21T15:39:13;28.90;94.80
13998;DHT22;7074;51.508;7.018;2023-08-21T15:41:42;28.90;94.40
13998;DHT22;7074;51.508;7.018;2023-08-21T15:44:09;29.00;94.20
13998;DHT22;7074;51.508;7.018;2023-08-21T15:50:24;29.30;93.40
13998;DHT22;7074;51.508;7.018;2023-08-21T15:52:51;29.60;92.30
13998;DHT22;7074;51.508;7.018;2023-08-21T15:55:18;29.50;91.80
13998;DHT22;7074;51.508;7.018;2023-08-21T15:57:47;29.60;91.80